createdAt,value
2017-09-04T00:01:33.996Z,78.40
2017-09-04T00:04:00.027Z,78.50
2017-09-04T00:06:26.044Z,78.50
2017-09-04T00:08:52.121Z,78.30
2017-09-04T00:11:18.183Z,78.50
2017-09-04T00:13:44.219Z,78.50
2017-09-04T00:16:10.285Z,78.60
2017-09-04T00:18:36.319Z,78.60
2017-09-04T00:21:02.380Z,78.60
2017-09-04T00:23:28.453Z,78.80
2017-09-04T00:25:54.511Z,79.00
2017-09-04T00:28:20.551Z,78.90
2017-09-04T00:30:46.603Z,79.10
2017-09-04T00:33:12.662Z,78.80
2017-09-04T00:35:38.691Z,79.00
2017-09-04T00:38:04.786Z,79.30
2017-09-04T00:40:30.835Z,79.10
2017-09-04T00:42:56.887Z,79.00
2017-09-04T00:45:23.062Z,79.20
2017-09-04T00:47:49.116Z,79.00
2017-09-04T00:50:15.159Z,79.10
2017-09-04T00:52:41.567Z,79.30
2017-09-04T00:55:07.624Z,79.20
2017-09-04T00:57:33.698Z,79.50
2017-09-04T00:59:59.743Z,79.30
2017-09-04T01:02:25.806Z,79.30
2017-09-04T01:04:51.890Z,79.20
2017-09-04T01:07:17.931Z,79.50
2017-09-04T01:09:43.976Z,79.40
2017-09-04T01:12:10.055Z,79.30
2017-09-04T01:14:36.159Z,79.20
2017-09-04T01:17:02.202Z,79.30
2017-09-04T01:19:28.221Z,79.20
2017-09-04T01:21:54.282Z,78.80
2017-09-04T01:24:20.356Z,79.10
2017-09-04T01:26:46.404Z,78.90
2017-09-04T01:29:12.473Z,78.60
2017-09-04T01:31:38.523Z,78.60
2017-09-04T01:34:04.570Z,78.70
2017-09-04T01:36:30.990Z,78.70
2017-09-04T01:38:57.018Z,78.70
2017-09-04T01:41:23.062Z,78.40
2017-09-04T01:43:49.138Z,78.70
2017-09-04T01:46:15.283Z,78.90
2017-09-04T01:48:41.326Z,78.50
2017-09-04T01:51:07.434Z,78.70
2017-09-04T01:53:33.467Z,78.80
2017-09-04T01:55:59.515Z,78.80
2017-09-04T01:58:25.605Z,78.80
2017-09-04T02:00:51.643Z,79.20
2017-09-04T02:03:17.674Z,78.90
2017-09-04T02:05:43.703Z,78.60
2017-09-04T02:08:09.771Z,78.70
2017-09-04T02:10:36.207Z,78.80
2017-09-04T02:13:02.250Z,79.10
2017-09-04T02:15:28.311Z,78.90
2017-09-04T02:17:54.487Z,79.10
2017-09-04T02:20:20.504Z,79.30
2017-09-04T02:22:46.555Z,79.10
2017-09-04T02:25:12.668Z,78.60
2017-09-04T02:27:38.715Z,78.70
2017-09-04T02:30:04.736Z,78.90
2017-09-04T02:32:31.125Z,79.00
2017-09-04T02:34:57.170Z,78.90
2017-09-04T02:37:23.225Z,78.90
2017-09-04T02:39:49.279Z,79.00
2017-09-04T02:42:15.347Z,79.20
2017-09-04T02:44:41.372Z,79.20
2017-09-04T02:47:07.442Z,79.20
2017-09-04T02:49:33.500Z,79.20
2017-09-04T02:51:59.546Z,79.30
2017-09-04T02:54:25.604Z,79.40
2017-09-04T02:56:51.638Z,79.50
2017-09-04T02:59:17.726Z,79.40
2017-09-04T03:01:43.750Z,79.50
2017-09-04T03:04:09.799Z,79.60
2017-09-04T03:06:35.882Z,79.70
2017-09-04T03:09:01.941Z,79.70
2017-09-04T03:11:28.002Z,79.60
2017-09-04T03:13:54.103Z,79.50
2017-09-04T03:16:20.179Z,79.30
2017-09-04T03:18:46.211Z,79.50
2017-09-04T03:21:12.275Z,79.50
2017-09-04T03:23:38.362Z,79.30
2017-09-04T03:26:04.848Z,79.20
2017-09-04T03:28:31.030Z,79.20
2017-09-04T03:30:57.055Z,79.30
2017-09-04T03:33:23.184Z,79.30
2017-09-04T03:35:49.230Z,79.30
2017-09-04T03:38:15.271Z,79.20
2017-09-04T03:40:41.335Z,79.20
2017-09-04T03:43:07.417Z,79.20
2017-09-04T03:45:33.465Z,79.10
2017-09-04T03:47:59.527Z,79.40
2017-09-04T03:50:25.575Z,79.40
2017-09-04T03:52:51.669Z,79.30
2017-09-04T03:55:17.730Z,80.30
2017-09-04T03:57:43.772Z,79.40
2017-09-04T04:00:09.826Z,80.10
2017-09-04T04:02:35.906Z,79.40
2017-09-04T04:05:01.979Z,79.10
2017-09-04T04:07:28.047Z,78.90
2017-09-04T04:09:54.087Z,79.00
2017-09-04T04:12:20.146Z,79.30
2017-09-04T04:14:46.451Z,79.00
2017-09-04T04:17:12.506Z,79.10
2017-09-04T04:19:38.579Z,79.10
2017-09-04T04:22:04.625Z,79.40
2017-09-04T04:24:30.673Z,79.40
2017-09-04T04:26:56.740Z,79.30
2017-09-04T04:29:23.087Z,79.60
2017-09-04T04:31:49.139Z,79.40
2017-09-04T04:34:15.204Z,79.40
2017-09-04T04:36:41.287Z,79.50
2017-09-04T04:39:07.362Z,79.50
2017-09-04T04:41:33.397Z,79.30
2017-09-04T04:43:59.420Z,79.60
2017-09-04T04:46:25.471Z,79.40
2017-09-04T04:48:51.777Z,79.40
2017-09-04T04:51:17.819Z,79.30
2017-09-04T04:53:43.842Z,79.20
2017-09-04T04:56:09.903Z,79.40
2017-09-04T04:58:35.923Z,79.50
2017-09-04T05:01:01.948Z,79.60
2017-09-04T05:03:28.003Z,79.50
2017-09-04T05:05:54.046Z,79.50
2017-09-04T05:08:20.098Z,79.70
2017-09-04T05:10:46.154Z,79.90
2017-09-04T05:13:12.180Z,79.90
2017-09-04T05:15:38.206Z,79.70
2017-09-04T05:18:04.561Z,79.90
2017-09-04T05:20:30.576Z,80.20
2017-09-04T05:22:56.603Z,80.40
2017-09-04T05:25:22.675Z,80.50
2017-09-04T05:27:48.705Z,80.40
2017-09-04T05:30:14.751Z,80.50
2017-09-04T05:32:40.811Z,80.10
2017-09-04T05:35:06.851Z,80.20
2017-09-04T05:37:33.707Z,80.10
2017-09-04T05:39:59.764Z,80.10
2017-09-04T05:42:25.809Z,80.20
2017-09-04T05:44:51.878Z,80.10
2017-09-04T05:47:18.154Z,79.90
2017-09-04T05:49:44.193Z,80.30
2017-09-04T05:52:10.238Z,80.50
2017-09-04T05:54:36.282Z,80.50
2017-09-04T05:57:02.326Z,80.20
2017-09-04T05:59:28.366Z,80.20
2017-09-04T06:01:54.470Z,80.00
2017-09-04T06:04:20.499Z,80.10
2017-09-04T06:06:46.523Z,80.10
2017-09-04T06:09:12.662Z,79.70
2017-09-04T06:11:38.715Z,79.90
2017-09-04T06:14:04.734Z,80.00
2017-09-04T06:16:30.923Z,80.00
2017-09-04T06:18:56.968Z,80.30
2017-09-04T06:21:23.007Z,80.40
2017-09-04T06:23:49.195Z,80.50
2017-09-04T06:26:15.245Z,80.60
2017-09-04T06:28:41.292Z,80.60
2017-09-04T06:31:07.362Z,81.30
2017-09-04T06:33:33.421Z,80.90
2017-09-04T06:35:59.462Z,80.80
2017-09-04T06:38:25.495Z,80.70
2017-09-04T06:40:51.551Z,80.20
2017-09-04T06:43:17.939Z,79.80
2017-09-04T06:45:43.979Z,80.00
2017-09-04T06:48:10.002Z,79.90
2017-09-04T06:50:36.425Z,80.10
2017-09-04T06:53:02.458Z,79.80
2017-09-04T06:55:28.508Z,79.50
2017-09-04T06:57:54.785Z,79.10
2017-09-04T07:00:20.818Z,78.90
2017-09-04T07:02:46.902Z,78.20
2017-09-04T07:05:12.954Z,77.60
2017-09-04T07:07:38.979Z,76.60
2017-09-04T07:10:05.042Z,76.40
2017-09-04T07:12:32.351Z,75.90
2017-09-04T07:14:58.395Z,75.40
2017-09-04T07:17:24.450Z,75.60
2017-09-04T07:19:50.522Z,74.90
2017-09-04T07:22:16.554Z,74.00
2017-09-04T07:24:42.598Z,73.30
2017-09-04T07:27:08.719Z,72.90
2017-09-04T07:29:34.766Z,72.40
2017-09-04T07:32:00.836Z,72.30
2017-09-04T07:34:26.864Z,72.20
2017-09-04T07:36:52.893Z,72.40
2017-09-04T07:39:19.319Z,72.70
2017-09-04T07:41:45.355Z,73.20
2017-09-04T07:44:11.382Z,72.80
2017-09-04T07:46:37.535Z,72.50
2017-09-04T07:49:03.581Z,71.50
2017-09-04T07:51:29.618Z,71.20
2017-09-04T07:53:55.679Z,69.70
2017-09-04T07:56:21.694Z,69.30
2017-09-04T07:58:47.731Z,66.50
2017-09-04T08:01:13.814Z,65.70
2017-09-04T08:03:39.839Z,65.90
2017-09-04T08:06:05.861Z,66.30
2017-09-04T08:08:31.942Z,65.60
2017-09-04T08:10:57.966Z,64.70
2017-09-04T08:13:24.007Z,64.10
2017-09-04T08:15:50.349Z,64.50
2017-09-04T08:18:16.402Z,64.50
2017-09-04T08:20:42.430Z,64.30
2017-09-04T08:23:08.453Z,64.20
2017-09-04T08:25:34.475Z,64.40
2017-09-04T08:28:00.525Z,63.90
2017-09-04T08:30:26.579Z,63.90
2017-09-04T08:32:52.602Z,64.00
2017-09-04T08:35:18.693Z,64.00
2017-09-04T08:37:44.718Z,62.30
2017-09-04T08:40:10.751Z,62.40
2017-09-04T08:42:36.806Z,62.10
2017-09-04T08:45:02.849Z,62.20
2017-09-04T08:47:28.879Z,62.00
2017-09-04T08:49:55.014Z,63.20
2017-09-04T08:52:21.051Z,61.90
2017-09-04T08:54:47.131Z,61.00
2017-09-04T08:57:13.414Z,61.50
2017-09-04T08:59:39.459Z,61.70
2017-09-04T09:02:05.493Z,62.30
2017-09-04T09:04:31.563Z,61.20
2017-09-04T09:06:57.592Z,61.40
2017-09-04T09:09:23.622Z,60.50
2017-09-04T09:11:49.852Z,59.90
2017-09-04T09:14:15.879Z,60.20
2017-09-04T09:16:41.963Z,60.30
2017-09-04T09:19:07.998Z,59.00
2017-09-04T09:21:34.063Z,59.00
2017-09-04T09:24:00.119Z,59.30
2017-09-04T09:26:26.257Z,58.60
2017-09-04T09:28:52.287Z,58.20
2017-09-04T09:31:18.346Z,58.30
2017-09-04T09:33:44.430Z,58.50
2017-09-04T09:36:10.451Z,58.50
2017-09-04T09:38:36.503Z,57.40
2017-09-04T09:41:02.550Z,57.00
2017-09-04T09:43:28.578Z,55.80
2017-09-04T09:45:54.678Z,52.60
2017-09-04T09:48:20.754Z,51.20
2017-09-04T09:50:46.902Z,47.80
2017-09-04T09:53:12.943Z,46.90
2017-09-04T09:55:39.006Z,45.50
2017-09-04T09:58:05.083Z,45.10
2017-09-04T10:00:31.146Z,44.50
2017-09-04T10:02:57.258Z,43.90
2017-09-04T10:05:23.296Z,43.70
2017-09-04T10:07:49.376Z,43.10
2017-09-04T10:10:15.421Z,42.10
2017-09-04T10:12:41.462Z,40.80
2017-09-04T10:15:07.843Z,40.50
2017-09-04T10:17:33.918Z,42.00
2017-09-04T10:19:59.975Z,44.20
2017-09-04T10:22:26.138Z,46.20
2017-09-04T10:24:52.191Z,46.70
2017-09-04T10:27:18.244Z,46.80
2017-09-04T10:29:44.343Z,48.90
2017-09-04T10:32:10.407Z,48.70
2017-09-04T10:34:36.446Z,49.70
2017-09-04T10:37:02.518Z,50.70
2017-09-04T10:39:28.562Z,48.90
2017-09-04T10:41:54.780Z,48.40
2017-09-04T10:44:20.817Z,48.40
2017-09-04T10:46:46.857Z,48.90
2017-09-04T10:49:12.910Z,47.90
2017-09-04T10:51:38.998Z,48.00
2017-09-04T10:54:05.052Z,47.80
2017-09-04T10:56:31.152Z,47.90
2017-09-04T10:58:57.170Z,47.70
2017-09-04T11:01:23.197Z,47.60
2017-09-04T11:03:49.384Z,48.30
2017-09-04T11:06:15.413Z,49.00
2017-09-04T11:08:41.450Z,50.80
2017-09-04T11:11:07.807Z,50.80
2017-09-04T11:13:33.839Z,51.00
2017-09-04T11:15:59.871Z,50.50
2017-09-04T11:18:26.594Z,50.70
2017-09-04T11:20:53.639Z,52.10
2017-09-04T11:23:20.161Z,52.40
2017-09-04T11:25:46.266Z,52.20
2017-09-04T11:28:12.314Z,52.70
2017-09-04T11:30:38.369Z,51.10
2017-09-04T11:33:04.433Z,52.00
2017-09-04T11:35:30.483Z,51.20
2017-09-04T11:37:56.506Z,51.20
2017-09-04T11:40:22.552Z,51.40
2017-09-04T11:42:49.018Z,52.10
2017-09-04T11:45:15.202Z,50.90
2017-09-04T11:47:41.262Z,51.40
2017-09-04T11:50:07.291Z,52.00
2017-09-04T11:52:33.370Z,51.50
2017-09-04T11:54:59.620Z,51.90
2017-09-04T11:57:26.934Z,52.40
2017-09-04T11:59:52.998Z,51.40
2017-09-04T12:02:19.080Z,52.30
2017-09-04T12:04:45.122Z,51.20
2017-09-04T12:07:11.245Z,49.90
2017-09-04T12:09:37.291Z,50.60
2017-09-04T12:12:03.343Z,51.70
2017-09-04T12:14:29.375Z,51.30
2017-09-04T12:16:55.508Z,51.00
2017-09-04T12:19:21.532Z,50.50
2017-09-04T12:21:47.591Z,50.30
2017-09-04T12:24:13.631Z,50.20
2017-09-04T12:26:39.670Z,49.60
2017-09-04T12:29:06.046Z,48.40
2017-09-04T12:31:32.168Z,48.40
2017-09-04T12:33:58.208Z,49.00
2017-09-04T12:36:24.311Z,49.00
2017-09-04T12:38:50.342Z,47.20
2017-09-04T12:41:16.382Z,47.50
2017-09-04T12:43:42.704Z,47.80
2017-09-04T12:46:08.743Z,48.70
2017-09-04T12:48:34.791Z,47.50
2017-09-04T12:51:00.873Z,47.70
2017-09-04T12:53:26.923Z,47.80
2017-09-04T12:55:52.949Z,47.30
2017-09-04T12:58:19.018Z,46.60
2017-09-04T13:00:45.129Z,47.30
2017-09-04T13:03:11.189Z,47.70
2017-09-04T13:05:37.350Z,46.50
2017-09-04T13:08:03.637Z,47.00
2017-09-04T13:10:35.780Z,47.00
2017-09-04T13:13:03.646Z,45.90
2017-09-04T13:18:47.287Z,46.50
2017-09-04T13:21:19.507Z,47.30
2017-09-04T13:23:51.615Z,47.80
2017-09-04T13:26:23.975Z,47.30
2017-09-04T13:28:55.826Z,47.50
2017-09-04T13:31:28.110Z,46.40
2017-09-04T13:34:00.375Z,46.10
2017-09-04T13:36:32.697Z,46.90
2017-09-04T13:39:04.941Z,47.80
2017-09-04T13:41:35.200Z,47.80
2017-09-04T13:44:07.289Z,47.10
2017-09-04T13:46:39.626Z,47.80
2017-09-04T13:49:05.718Z,48.90
2017-09-04T13:51:37.849Z,48.20
2017-09-04T13:54:10.186Z,48.10
2017-09-04T13:56:39.233Z,48.30
2017-09-04T13:59:11.591Z,48.90
2017-09-04T14:01:42.452Z,48.30
2017-09-04T14:04:13.365Z,48.50
2017-09-04T14:06:45.535Z,49.00
2017-09-04T14:09:12.414Z,48.70
2017-09-04T14:11:44.535Z,48.30
2017-09-04T14:14:16.732Z,48.60
2017-09-04T14:16:48.660Z,49.40
2017-09-04T14:19:14.704Z,50.00
2017-09-04T14:21:40.779Z,49.70
2017-09-04T14:24:06.842Z,50.20
2017-09-04T14:26:32.889Z,49.90
2017-09-04T14:28:59.100Z,49.60
2017-09-04T14:31:25.154Z,51.10
2017-09-04T14:33:51.197Z,50.20
2017-09-04T14:36:17.509Z,49.60
2017-09-04T14:38:43.608Z,51.00
2017-09-04T14:41:22.603Z,50.60
2017-09-04T14:43:54.913Z,50.60
2017-09-04T14:46:22.861Z,50.90
2017-09-04T14:48:48.906Z,49.30
2017-09-04T14:51:14.935Z,47.70
2017-09-04T14:53:41.023Z,47.80
2017-09-04T14:56:07.071Z,48.80
2017-09-04T14:58:33.126Z,48.80
2017-09-04T15:00:59.200Z,48.90
2017-09-04T15:03:25.214Z,48.00
2017-09-04T15:05:51.264Z,47.80
2017-09-04T15:08:17.375Z,48.00
2017-09-04T15:10:43.403Z,48.40
2017-09-04T15:13:09.503Z,49.90
2017-09-04T15:15:35.615Z,49.40
2017-09-04T15:18:01.673Z,50.00
2017-09-04T15:20:27.761Z,50.00
2017-09-04T15:22:53.814Z,49.90
2017-09-04T15:25:19.864Z,49.30
2017-09-04T15:27:45.981Z,50.20
2017-09-04T15:30:12.091Z,51.40
2017-09-04T15:32:38.138Z,50.60
2017-09-04T15:35:04.229Z,51.20
2017-09-04T15:37:30.282Z,51.30
2017-09-04T15:39:56.352Z,51.80
2017-09-04T15:42:22.402Z,50.00
2017-09-04T15:44:48.443Z,50.20
2017-09-04T15:47:14.519Z,49.60
2017-09-04T15:49:40.846Z,49.40
2017-09-04T15:52:06.882Z,49.70
2017-09-04T15:54:32.953Z,50.20
2017-09-04T15:56:59.034Z,50.00
2017-09-04T15:59:25.109Z,48.50
2017-09-04T16:01:51.226Z,49.00
2017-09-04T16:04:17.678Z,49.60
2017-09-04T16:06:44.602Z,49.30
2017-09-04T16:09:10.662Z,49.40
2017-09-04T16:11:39.025Z,49.40
2017-09-04T16:14:06.966Z,49.50
2017-09-04T16:19:57.587Z,49.60
2017-09-04T16:22:24.406Z,49.90
2017-09-04T16:24:50.477Z,49.40
2017-09-04T16:30:19.248Z,48.80
2017-09-04T16:32:48.338Z,48.50
2017-09-04T16:35:15.262Z,48.30
2017-09-04T16:37:47.294Z,48.30
2017-09-04T16:40:13.391Z,48.50
2017-09-04T16:42:39.454Z,48.80
2017-09-04T16:45:17.666Z,49.20
2017-09-04T16:47:56.663Z,50.30
2017-09-04T16:50:22.787Z,49.50
2017-09-04T16:52:49.734Z,49.60
2017-09-04T16:55:15.770Z,50.50
2017-09-04T16:57:41.878Z,50.60
2017-09-04T17:00:07.940Z,51.20
2017-09-04T17:02:34.012Z,50.50
2017-09-04T17:05:00.267Z,49.50
2017-09-04T17:07:26.330Z,49.80
2017-09-04T17:09:58.476Z,50.40
2017-09-04T17:12:25.574Z,50.70
2017-09-04T17:14:51.639Z,50.40
2017-09-04T17:17:20.651Z,50.40
2017-09-04T17:19:46.724Z,50.90
2017-09-04T17:22:12.775Z,51.20
2017-09-04T17:24:50.775Z,52.20
2017-09-04T17:27:16.851Z,52.70
2017-09-04T17:29:42.935Z,52.40
2017-09-04T17:32:09.162Z,52.60
2017-09-04T17:34:35.220Z,53.70
2017-09-04T17:37:01.266Z,53.80
2017-09-04T17:39:27.363Z,53.80
2017-09-04T17:41:53.424Z,54.10
2017-09-04T17:44:19.608Z,54.60
2017-09-04T17:46:45.691Z,55.00
2017-09-04T17:49:11.750Z,55.20
2017-09-04T17:51:37.794Z,55.70
2017-09-04T17:54:03.903Z,55.70
2017-09-04T17:56:29.986Z,56.10
2017-09-04T17:58:56.045Z,56.70
2017-09-04T18:01:22.163Z,56.30
2017-09-04T18:03:48.239Z,56.90
2017-09-04T18:06:14.514Z,56.90
2017-09-04T18:08:40.592Z,56.90
2017-09-04T18:11:06.623Z,57.40
2017-09-04T18:13:32.687Z,57.60
2017-09-04T18:15:59.115Z,57.80
2017-09-04T18:18:25.196Z,57.80
2017-09-04T18:20:51.268Z,58.10
2017-09-04T18:23:17.359Z,58.30
2017-09-04T18:25:43.427Z,58.60
2017-09-04T18:28:09.518Z,58.80
2017-09-04T18:30:35.603Z,59.10
2017-09-04T18:33:01.666Z,59.30
2017-09-04T18:35:27.755Z,59.50
2017-09-04T18:37:53.835Z,59.60
2017-09-04T18:40:19.926Z,59.70
2017-09-04T18:42:45.938Z,60.20
2017-09-04T18:45:12.039Z,60.50
2017-09-04T18:47:38.100Z,60.60
2017-09-04T18:50:04.148Z,60.70
2017-09-04T18:52:30.212Z,60.80
2017-09-04T18:54:56.277Z,61.20
2017-09-04T18:57:22.307Z,61.70
2017-09-04T18:59:48.378Z,62.00
2017-09-04T19:02:14.418Z,62.10
2017-09-04T19:04:40.474Z,62.40
2017-09-04T19:07:06.584Z,62.70
2017-09-04T19:09:32.634Z,62.90
2017-09-04T19:11:58.683Z,63.30
2017-09-04T19:14:24.751Z,63.50
2017-09-04T19:16:50.799Z,63.80
2017-09-04T19:19:16.843Z,64.10
2017-09-04T19:21:42.907Z,64.20
2017-09-04T19:24:08.962Z,64.40
2017-09-04T19:26:35.051Z,64.50
2017-09-04T19:29:01.113Z,64.60
2017-09-04T19:31:27.187Z,64.80
2017-09-04T19:33:53.631Z,65.10
2017-09-04T19:36:19.713Z,65.20
2017-09-04T19:38:45.762Z,65.50
2017-09-04T19:41:11.879Z,65.90
2017-09-04T19:43:37.980Z,66.80
2017-09-04T19:46:04.067Z,66.30
2017-09-04T19:48:30.131Z,66.30
2017-09-04T19:50:56.186Z,66.70
2017-09-04T19:53:22.311Z,66.90
2017-09-04T19:55:48.391Z,67.20
2017-09-04T19:58:14.691Z,67.40
2017-09-04T20:00:40.872Z,67.60
2017-09-04T20:03:06.919Z,67.70
2017-09-04T20:05:34.927Z,67.60
2017-09-04T20:08:01.186Z,67.90
2017-09-04T20:10:27.238Z,67.90
2017-09-04T20:12:53.308Z,68.40
2017-09-04T20:15:19.579Z,68.40
2017-09-04T20:17:45.632Z,68.60
2017-09-04T20:20:11.701Z,68.50
2017-09-04T20:22:38.158Z,68.80
2017-09-04T20:25:04.211Z,69.10
2017-09-04T20:27:30.269Z,69.30
2017-09-04T20:29:56.385Z,69.50
2017-09-04T20:32:22.455Z,70.50
2017-09-04T20:34:48.478Z,69.80
2017-09-04T20:37:14.892Z,70.00
2017-09-04T20:39:41.015Z,70.30
2017-09-04T20:42:07.048Z,70.50
2017-09-04T20:44:33.183Z,71.00
2017-09-04T20:46:59.250Z,71.10
2017-09-04T20:49:25.295Z,71.00
2017-09-04T20:51:51.531Z,71.00
2017-09-04T20:54:17.559Z,71.30
2017-09-04T20:56:43.683Z,71.10
2017-09-04T20:59:09.755Z,71.70
2017-09-04T21:01:35.784Z,71.90
2017-09-04T21:04:01.891Z,72.00
2017-09-04T21:06:27.977Z,72.00
2017-09-04T21:08:54.026Z,71.90
2017-09-04T21:11:20.093Z,71.60
2017-09-04T21:13:46.164Z,71.80
2017-09-04T21:16:12.214Z,72.00
2017-09-04T21:18:38.282Z,72.10
2017-09-04T21:21:04.646Z,72.40
2017-09-04T21:23:30.695Z,72.40
2017-09-04T21:25:56.750Z,72.50
2017-09-04T21:28:22.814Z,72.50
2017-09-04T21:30:48.875Z,73.00
2017-09-04T21:33:15.040Z,72.90
2017-09-04T21:35:41.105Z,73.20
2017-09-04T21:38:07.165Z,73.50
2017-09-04T21:40:33.209Z,73.70
2017-09-04T21:42:59.242Z,73.60
2017-09-04T21:45:25.308Z,73.90
2017-09-04T21:47:51.390Z,73.80
2017-09-04T21:50:17.424Z,74.00
2017-09-04T21:52:43.479Z,74.00
2017-09-04T21:55:09.954Z,74.60
2017-09-04T21:57:36.004Z,74.50
2017-09-04T22:00:02.184Z,74.60
2017-09-04T22:02:28.266Z,74.80
2017-09-04T22:04:54.299Z,74.80
2017-09-04T22:07:20.337Z,74.90
2017-09-04T22:09:46.379Z,75.20
2017-09-04T22:12:12.379Z,75.50
2017-09-04T22:14:38.415Z,75.40
2017-09-04T22:17:04.517Z,75.50
2017-09-04T22:19:30.582Z,75.50
2017-09-04T22:21:57.135Z,75.40
2017-09-04T22:24:23.489Z,75.60
2017-09-04T22:26:49.671Z,75.80
2017-09-04T22:29:16.181Z,75.90
2017-09-04T22:31:42.451Z,76.00
2017-09-04T22:34:08.619Z,76.10
2017-09-04T22:36:35.118Z,76.90
2017-09-04T22:39:01.282Z,76.10
2017-09-04T22:41:27.521Z,76.20
2017-09-04T22:43:53.983Z,76.60
2017-09-04T22:46:20.216Z,76.40
2017-09-04T22:48:46.390Z,76.20
2017-09-04T22:51:12.587Z,76.20
2017-09-04T22:53:38.888Z,76.50
2017-09-04T22:56:05.180Z,76.50
2017-09-04T22:58:32.298Z,76.50
2017-09-04T23:00:58.525Z,77.30
2017-09-04T23:03:24.869Z,76.60
2017-09-04T23:05:51.271Z,76.70
2017-09-04T23:08:17.418Z,76.80
2017-09-04T23:10:43.622Z,77.60
2017-09-04T23:13:10.683Z,77.00
2017-09-04T23:15:36.925Z,77.10
2017-09-04T23:18:02.981Z,77.00
2017-09-04T23:20:29.298Z,77.00
2017-09-04T23:22:55.554Z,77.20
2017-09-04T23:25:21.805Z,77.10
2017-09-04T23:27:47.950Z,77.00
2017-09-04T23:30:14.190Z,77.90
2017-09-04T23:32:40.997Z,77.30
2017-09-04T23:35:07.488Z,77.30
2017-09-04T23:37:33.723Z,77.30
2017-09-04T23:39:59.802Z,77.20
2017-09-04T23:42:25.965Z,77.40
2017-09-04T23:44:52.150Z,77.50
2017-09-04T23:47:18.956Z,77.80
2017-09-04T23:49:45.278Z,77.90
2017-09-04T23:52:11.466Z,77.70
2017-09-04T23:54:37.886Z,77.70
2017-09-04T23:57:04.450Z,77.60
2017-09-04T23:59:30.598Z,77.70
